Time;durP1;ratioP1;P1;durP2;ratioP2;P2;SDS_P1;SDS_P2;PMS_P1;PMS_P2;Temp;Humidity;BMP_temperature;BMP_pressure;BME280_temperature;BME280_humidity;BME280_pressure;Samples;Min_cycle;Max_cycle;Signal;HPM_P1;HPM_P2
2022/10/05 00:02:21;;;;;;;1.90;1.70;;;;;;;12.41;47.75;94734.75;4971968;28;20030;-76
2022/10/05 00:04:47;;;;;;;2.28;1.70;;;;;;;12.35;47.94;94741.28;4974024;28;20484;-78
2022/10/05 00:07:16;;;;;;;2.00;1.50;;;;;;;12.22;47.86;94725.34;4971269;28;20477;-76
2022/10/05 00:09:44;;;;;;;1.40;1.30;;;;;;;12.36;48.11;94747.41;4970617;28;20050;-77
2022/10/05 00:12:12;;;;;;;3.90;2.03;;;;;;;12.18;48.43;94722.44;4970616;28;20030;-76
2022/10/05 00:14:38;;;;;;;2.03;1.55;;;;;;;12.16;48.70;94721.97;4970469;28;20044;-77
2022/10/05 00:17:04;;;;;;;3.28;2.30;;;;;;;12.10;49.22;94738.38;4971372;28;20030;-76
2022/10/05 00:19:31;;;;;;;3.83;1.77;;;;;;;11.88;49.94;94742.56;4954937;28;20045;-76
2022/10/05 00:22:18;;;;;;;2.47;2.28;;;;;;;11.42;51.02;94734.66;4971343;28;20027;-77
2022/10/05 00:24:45;;;;;;;2.92;1.83;;;;;;;11.47;51.12;94736.44;4970406;28;20487;-76
2022/10/05 00:27:21;;;;;;;4.15;1.88;;;;;;;11.31;51.66;94732.47;4971894;28;20120;-76
2022/10/05 00:29:48;;;;;;;2.72;1.80;;;;;;;11.53;50.93;94735.28;4971300;28;20019;-76
2022/10/05 00:32:14;;;;;;;2.35;2.13;;;;;;;11.09;50.91;94656.75;4969677;28;20041;-76
2022/10/05 00:34:41;;;;;;;3.17;1.70;;;;;;;11.73;50.69;94729.56;4971609;28;20030;-76
2022/10/05 00:37:06;;;;;;;1.98;1.73;;;;;;;11.90;50.14;94729.72;4969446;28;20037;-76
2022/10/05 00:39:34;;;;;;;1.85;1.52;;;;;;;12.01;49.30;94741.78;4964583;28;20398;-77
2022/10/05 00:42:12;;;;;;;2.85;1.80;;;;;;;11.89;49.88;94732.69;4971111;28;20046;-76
2022/10/05 00:44:53;;;;;;;2.45;1.50;;;;;;;11.92;49.74;94734.78;4972719;28;20117;-76
2022/10/05 00:47:25;;;;;;;1.85;1.58;;;;;;;11.91;49.65;94727.84;4956752;28;20038;-76
2022/10/05 00:50:02;;;;;;;2.50;1.83;;;;;;;12.04;49.35;94735.81;4971489;28;20080;-77
2022/10/05 00:52:43;;;;;;;1.80;1.60;;;;;;;12.18;48.80;94735.00;4971226;28;20029;-76
2022/10/05 00:55:11;;;;;;;1.60;1.50;;;;;;;12.00;48.95;94739.38;4972705;28;20030;-77
2022/10/05 00:57:55;;;;;;;1.63;1.52;;;;;;;11.91;48.88;94736.66;4970372;28;20023;-76
2022/10/05 01:00:24;;;;;;;1.50;1.40;;;;;;;11.77;49.01;94735.88;4972346;28;20033;-77
2022/10/05 01:03:05;;;;;;;1.65;1.40;;;;;;;11.51;49.75;94748.09;4972806;28;20022;-76
2022/10/05 01:05:56;;;;;;;2.65;1.73;;;;;;;11.42;50.52;94752.53;4970383;28;20026;-76
2022/10/05 01:08:37;;;;;;;2.40;2.03;;;;;;;11.25;50.89;94754.97;4971253;28;20092;-76
2022/10/05 01:11:24;;;;;;;1.45;1.20;;;;;;;11.38;51.00;94759.53;4971617;28;20565;-77
2022/10/05 01:14:24;;;;;;;3.33;1.88;;;;;;;11.55;50.62;94757.09;4972505;28;20488;-76
2022/10/05 01:17:00;;;;;;;1.83;1.40;;;;;;;11.41;50.69;94748.28;4969471;28;20019;-76
2022/10/05 01:19:47;;;;;;;1.75;1.50;;;;;;;11.63;50.90;94755.63;4971316;28;20057;-77
2022/10/05 01:22:48;;;;;;;2.17;1.58;;;;;;;11.64;50.72;94749.97;4971067;28;20014;-76
2022/10/05 01:25:48;;;;;;;4.85;2.17;;;;;;;11.62;50.64;94727.38;4918333;29;20032;-76
2022/10/05 01:28:55;;;;;;;2.90;1.35;;;;;;;11.64;50.39;94771.28;4969888;28;20042;-75
2022/10/05 01:31:31;;;;;;;2.08;1.42;;;;;;;11.82;50.17;94757.09;4939466;28;20054;-76
2022/10/05 01:34:09;;;;;;;4.22;1.75;;;;;;;11.94;50.00;94773.34;4970528;28;20409;-76
2022/10/05 01:36:43;;;;;;;2.83;1.52;;;;;;;12.11;49.69;94777.28;4952939;28;20034;-77
2022/10/05 01:39:30;;;;;;;1.30;1.20;;;;;;;12.24;49.55;94776.47;4968545;28;20037;-77
2022/10/05 01:42:02;;;;;;;1.48;1.35;;;;;;;12.32;49.19;94783.78;4971734;28;20528;-76
2022/10/05 01:44:35;;;;;;;1.50;1.40;;;;;;;12.15;49.02;94762.28;4970071;28;20150;-76
2022/10/05 01:47:09;;;;;;;1.80;1.48;;;;;;;12.33;48.81;94788.00;4951814;28;20464;-76
2022/10/05 01:49:51;;;;;;;1.50;1.40;;;;;;;12.31;48.72;94782.19;4970386;28;20030;-75
2022/10/05 01:52:49;;;;;;;2.83;1.92;;;;;;;12.11;49.20;94785.28;4969120;28;20034;-77
2022/10/05 01:55:28;;;;;;;1.60;1.50;;;;;;;12.29;49.18;94795.03;4970454;28;20133;-76
2022/10/05 01:58:03;;;;;;;2.05;1.25;;;;;;;12.47;48.63;94796.75;4968616;28;20030;-76
2022/10/05 02:00:33;;;;;;;3.05;1.80;;;;;;;12.51;48.75;94797.75;4971160;28;20655;-76
2022/10/05 02:03:10;;;;;;;3.17;1.70;;;;;;;12.46;48.29;94781.88;4968711;28;20029;-76
2022/10/05 02:05:54;;;;;;;1.67;1.42;;;;;;;12.64;48.43;94807.63;4969614;28;20151;-77
2022/10/05 02:09:18;;;;;;;1.70;1.60;;;;;;;12.65;48.31;94809.22;4971723;28;20030;-76
2022/10/05 02:11:50;;;;;;;1.58;1.20;;;;;;;12.68;48.29;94807.81;4954729;28;20053;-76
2022/10/05 02:14:29;;;;;;;2.35;1.10;;;;;;;12.69;47.93;94804.84;4967285;28;20114;-77
2022/10/05 02:16:59;;;;;;;2.97;1.80;;;;;;;12.65;48.09;94798.53;4952957;28;20488;-78
2022/10/05 02:19:28;;;;;;;5.15;2.70;;;;;;;12.67;47.92;94807.03;4970967;28;20118;-76
2022/10/05 02:22:00;;;;;;;4.80;3.05;;;;;;;12.66;47.82;94810.81;4970115;28;20022;-76
2022/10/05 02:24:33;;;;;;;5.35;3.05;;;;;;;12.57;47.56;94801.09;4971461;28;20598;-77
2022/10/05 02:27:00;;;;;;;6.93;3.22;;;;;;;12.54;47.57;94807.84;4968641;28;20061;-76
2022/10/05 02:29:29;;;;;;;4.55;2.85;;;;;;;12.52;47.53;94809.22;4969208;28;20129;-76
2022/10/05 02:32:23;;;;;;;3.20;2.83;;;;;;;12.38;47.50;94815.38;4959227;28;20519;-76
2022/10/05 02:34:49;;;;;;;3.20;2.90;;;;;;;12.23;47.76;94798.91;4967384;28;20945;-77
2022/10/05 02:37:21;;;;;;;3.20;2.50;;;;;;;12.24;47.75;94817.28;4970790;28;20374;-76
2022/10/05 02:40:11;;;;;;;3.83;2.75;;;;;;;12.14;47.94;94819.34;4969645;28;20030;-76
2022/10/05 02:42:46;;;;;;;3.42;2.17;;;;;;;12.06;48.14;94814.72;4965680;28;20101;-78
2022/10/05 02:45:34;;;;;;;6.03;2.90;;;;;;;12.00;48.07;94809.50;4969018;28;20033;-76
2022/10/05 02:48:09;;;;;;;2.42;2.03;;;;;;;11.95;48.32;94806.94;4967489;28;20613;-76
2022/10/05 02:51:16;;;;;;;3.75;1.92;;;;;;;11.90;48.20;94798.25;4968204;28;20031;-77
2022/10/05 02:53:47;;;;;;;2.20;1.90;;;;;;;11.85;48.54;94804.47;4969861;28;20054;-75
2022/10/05 02:56:28;;;;;;;2.33;1.55;;;;;;;11.82;48.61;94805.06;4968079;28;20309;-77
2022/10/05 02:58:56;;;;;;;2.33;1.45;;;;;;;11.59;49.16;94801.50;4950602;28;20118;-77
2022/10/05 03:01:45;;;;;;;4.45;1.98;;;;;;;11.44;50.17;94803.63;4968518;28;20113;-76
2022/10/05 03:04:20;;;;;;;2.60;1.75;;;;;;;11.60;49.89;94808.41;4934685;28;20042;-76
2022/10/05 03:06:50;;;;;;;;;;;;;;;11.62;49.39;94805.47;4970665;28;20597;-75
2022/10/05 03:09:20;;;;;;;1.60;1.50;;;;;;;11.50;49.53;94802.44;4969600;28;19914;-76
2022/10/05 03:11:57;;;;;;;2.20;1.33;;;;;;;11.57;49.61;94816.22;4969840;28;20062;-76
2022/10/05 03:14:38;;;;;;;2.28;1.88;;;;;;;11.63;49.52;94815.03;4969495;28;20058;-77
2022/10/05 03:17:19;;;;;;;5.15;2.78;;;;;;;11.68;49.49;94822.94;4970068;28;20025;-77
2022/10/05 03:19:59;;;;;;;3.80;3.03;;;;;;;11.68;49.43;94825.59;4960271;28;20026;-75
2022/10/05 03:22:51;;;;;;;5.75;4.05;;;;;;;11.67;48.97;94824.00;4969509;28;20505;-76
2022/10/05 03:25:38;;;;;;;5.22;4.25;;;;;;;11.64;49.32;94827.25;4943997;28;20042;-77
2022/10/05 03:28:30;;;;;;;5.13;3.90;;;;;;;11.55;49.29;94818.34;4967803;28;20046;-77
2022/10/05 03:31:10;;;;;;;5.47;4.07;;;;;;;11.48;49.32;94823.28;4968337;28;20511;-76
2022/10/05 03:33:45;;;;;;;3.83;3.17;;;;;;;11.37;49.53;94816.53;4967851;28;20030;-76
2022/10/05 03:36:23;;;;;;;3.88;3.47;;;;;;;11.44;49.54;94822.28;4968114;28;20151;-77
2022/10/05 03:39:07;;;;;;;6.63;4.50;;;;;;;11.28;49.36;94832.41;4970481;28;20611;-75
2022/10/05 03:41:46;;;;;;;5.83;4.30;;;;;;;11.27;49.54;94844.13;4968840;28;20710;-76
2022/10/05 03:44:32;;;;;;;5.90;4.78;;;;;;;11.35;49.62;94855.97;4951959;28;20272;-77
2022/10/05 03:47:24;;;;;;;8.88;5.07;;;;;;;11.32;49.26;94857.38;4969551;28;20109;-76
2022/10/05 03:50:00;;;;;;;5.93;4.15;;;;;;;11.28;49.23;94861.69;4955139;28;20041;-76
2022/10/05 03:52:38;;;;;;;6.35;4.32;;;;;;;11.21;49.39;94866.59;4971511;28;20034;-76
2022/10/05 03:55:30;;;;;;;5.55;4.15;;;;;;;11.11;49.36;94856.91;4974489;28;20023;-76
2022/10/05 03:58:01;;;;;;;6.55;4.40;;;;;;;10.94;49.47;94840.69;4968323;28;20029;-77
2022/10/05 04:00:30;;;;;;;5.35;3.90;;;;;;;11.07;49.26;94871.09;4954235;28;20798;-76
2022/10/05 04:03:03;;;;;;;5.70;5.18;;;;;;;11.04;49.29;94883.13;4973548;28;20569;-77
2022/10/05 04:05:44;;;;;;;4.95;4.13;;;;;;;11.02;49.50;94885.25;4973554;28;20030;-76
2022/10/05 04:08:20;;;;;;;6.75;4.93;;;;;;;10.99;49.35;94896.50;4953022;28;20161;-76
2022/10/05 04:10:50;;;;;;;6.57;5.10;;;;;;;10.92;49.38;94880.09;4972568;28;20113;-76
2022/10/05 04:13:38;;;;;;;5.40;4.25;;;;;;;10.92;49.57;94893.41;4971792;28;20106;-76
2022/10/05 04:16:12;;;;;;;7.28;4.57;;;;;;;10.88;49.70;94897.72;4975050;28;20018;-76
2022/10/05 04:18:49;;;;;;;4.70;4.15;;;;;;;10.88;49.88;94894.25;4970931;28;20031;-76
2022/10/05 04:21:31;;;;;;;5.43;4.40;;;;;;;10.75;50.19;94885.16;4970938;28;20033;-76
2022/10/05 04:24:03;;;;;;;4.93;3.90;;;;;;;10.77;50.31;94890.94;4973115;28;20039;-76
2022/10/05 04:26:36;;;;;;;6.43;4.57;;;;;;;10.82;50.52;94890.88;4955552;28;20601;-76
2022/10/05 04:29:20;;;;;;;7.50;4.97;;;;;;;10.83;50.98;94897.78;4972662;28;20803;-76
2022/10/05 04:32:06;;;;;;;6.60;4.68;;;;;;;10.83;50.75;94892.47;4971932;28;20029;-76
2022/10/05 04:34:53;;;;;;;7.60;4.72;;;;;;;10.83;51.10;94895.13;4970438;28;20639;-75
2022/10/05 04:37:59;;;;;;;7.28;4.90;;;;;;;10.82;50.97;94896.19;4970890;28;20031;-76
2022/10/05 04:40:27;;;;;;;13.02;6.32;;;;;;;10.81;51.26;94899.94;4958758;28;20046;-76
2022/10/05 04:43:07;;;;;;;9.82;6.43;;;;;;;10.52;51.58;94862.03;4971705;28;20026;-77
2022/10/05 04:45:41;;;;;;;10.13;6.13;;;;;;;10.82;51.67;94906.84;4971715;28;20045;-77
2022/10/05 04:48:18;;;;;;;6.15;5.00;;;;;;;10.81;51.82;94910.59;4972839;28;20556;-76
2022/10/05 04:51:05;;;;;;;8.23;5.22;;;;;;;10.73;51.46;94887.28;4970440;28;20030;-76
2022/10/05 04:53:38;;;;;;;10.80;5.47;;;;;;;10.81;51.96;94915.91;4970823;28;20029;-76
2022/10/05 04:56:10;;;;;;;6.15;5.13;;;;;;;10.85;51.97;94916.94;4972326;28;20030;-77
2022/10/05 04:59:06;;;;;;;6.43;4.60;;;;;;;10.97;52.04;94927.94;4973220;28;20378;-77
2022/10/05 05:01:46;;;;;;;9.43;5.20;;;;;;;11.04;51.89;94931.03;4970462;28;20026;-75
2022/10/05 05:04:33;;;;;;;9.15;5.22;;;;;;;11.08;52.02;94924.06;4970826;28;20046;-75
2022/10/05 05:07:14;;;;;;;8.25;5.13;;;;;;;11.11;52.22;94926.13;4971554;28;20662;-78
2022/10/05 05:10:01;;;;;;;10.48;5.55;;;;;;;11.16;52.16;94923.38;4970070;28;20480;-76
2022/10/05 05:13:04;;;;;;;8.00;4.82;;;;;;;11.20;52.38;94928.16;4970087;28;20069;-77
2022/10/05 05:15:29;;;;;;;9.13;4.43;;;;;;;11.21;52.91;94919.06;4970222;28;20026;-77
2022/10/05 05:18:06;;;;;;;5.20;3.00;;;;;;;10.85;53.27;94910.81;4970815;28;20030;-77
2022/10/05 05:20:31;;;;;;;3.17;2.55;;;;;;;10.94;53.71;94931.19;4972618;28;20021;-76
2022/10/05 05:23:00;;;;;;;3.53;2.88;;;;;;;11.07;53.46;94930.44;4971590;28;20022;-77
2022/10/05 05:25:57;;;;;;;4.32;2.65;;;;;;;10.82;53.63;94901.53;4969379;28;20030;-76
2022/10/05 05:28:49;;;;;;;3.38;2.50;;;;;;;10.87;53.22;94903.31;4956833;28;20178;-77
2022/10/05 05:31:26;;;;;;;3.42;2.90;;;;;;;11.00;53.27;94924.69;4970233;28;20042;-75
2022/10/05 05:34:25;;;;;;;5.57;2.50;;;;;;;11.21;53.22;94935.03;4970361;28;20033;-76
2022/10/05 05:37:06;;;;;;;6.13;2.95;;;;;;;11.00;53.12;94940.66;4970889;28;20119;-76
2022/10/05 05:40:02;;;;;;;3.40;2.78;;;;;;;10.86;53.42;94917.69;4969544;28;20031;-76
2022/10/05 05:42:28;;;;;;;;;;;;;;;11.02;53.16;94927.84;4969834;28;20081;-76
2022/10/05 05:44:59;;;;;;;3.67;3.17;;;;;;;11.00;52.80;94935.34;4969978;28;19917;-77
2022/10/05 05:47:36;;;;;;;3.45;2.60;;;;;;;10.96;53.00;94934.31;4971115;28;20392;-76
2022/10/05 05:50:29;;;;;;;3.30;2.85;;;;;;;11.20;52.62;94930.81;4970375;28;20036;-76
2022/10/05 05:53:02;;;;;;;3.97;2.55;;;;;;;11.31;52.65;94945.53;4952119;28;20029;-77
2022/10/05 05:55:27;;;;;;;3.38;2.92;;;;;;;11.22;52.73;94944.63;4969849;28;20381;-78
2022/10/05 05:58:13;;;;;;;3.13;2.72;;;;;;;11.17;52.65;94954.25;4968143;28;20030;-75
2022/10/05 06:00:55;;;;;;;3.78;3.10;;;;;;;11.00;52.57;94902.63;4967905;28;21035;-76
2022/10/05 06:03:38;;;;;;;4.75;2.63;;;;;;;11.38;51.79;94956.63;4968372;28;20649;-76
2022/10/05 06:06:08;;;;;;;3.80;2.72;;;;;;;11.41;51.61;94940.84;4968904;28;20505;-77
2022/10/05 06:08:52;;;;;;;6.00;2.75;;;;;;;11.51;52.27;94953.25;4965323;28;20022;-76
2022/10/05 06:11:33;;;;;;;3.13;2.67;;;;;;;11.64;51.65;94952.50;4948790;28;20038;-76
2022/10/05 06:14:04;;;;;;;3.58;2.53;;;;;;;11.54;50.80;94929.47;4969904;28;20038;-76
2022/10/05 06:16:38;;;;;;;4.03;2.50;;;;;;;11.76;50.47;94949.38;4971474;28;20034;-76
2022/10/05 06:19:11;;;;;;;3.13;2.83;;;;;;;11.81;50.44;94944.75;4971827;28;20022;-77
2022/10/05 06:22:08;;;;;;;5.90;2.65;;;;;;;11.76;49.79;94942.19;4970265;28;20030;-76
2022/10/05 06:24:57;;;;;;;7.07;2.85;;;;;;;11.80;49.98;94974.34;4969329;28;20035;-76
2022/10/05 06:27:24;;;;;;;3.60;2.13;;;;;;;11.77;49.64;94980.28;4970352;28;20050;-76
2022/10/05 06:30:06;;;;;;;3.50;2.88;;;;;;;11.87;49.52;94980.13;4969257;28;20729;-77
2022/10/05 06:32:50;;;;;;;2.72;2.25;;;;;;;11.98;49.62;94992.97;4969639;28;20061;-77
2022/10/05 06:35:39;;;;;;;5.95;2.90;;;;;;;12.17;49.39;94994.78;4970535;28;20026;-77
2022/10/05 06:38:32;;;;;;;3.33;2.30;;;;;;;11.97;49.31;94963.94;4969347;28;20050;-76
2022/10/05 06:41:13;;;;;;;3.75;2.70;;;;;;;12.10;49.23;95005.03;4968366;28;20014;-77
2022/10/05 06:44:04;;;;;;;3.78;2.55;;;;;;;12.21;49.01;95001.13;4968145;28;20121;-76
2022/10/05 06:46:49;;;;;;;3.35;2.50;;;;;;;12.29;49.03;95000.44;4940213;28;20862;-78
2022/10/05 06:49:22;;;;;;;6.60;3.90;;;;;;;12.38;49.63;95007.47;4954803;28;20023;-76
2022/10/05 06:51:50;;;;;;;5.15;2.95;;;;;;;12.48;49.10;95019.81;4971354;28;20038;-76
2022/10/05 06:54:18;;;;;;;3.40;2.90;;;;;;;12.43;48.92;95030.59;4970097;28;20027;-76
2022/10/05 06:56:46;;;;;;;7.93;3.08;;;;;;;12.47;48.62;95016.34;4966655;28;20556;-77
2022/10/05 06:59:25;;;;;;;7.05;5.82;;;;;;;12.59;50.27;95023.91;4968344;28;20084;-76
2022/10/05 07:02:20;;;;;;;9.68;6.65;;;;;;;12.65;50.50;95032.63;4971026;28;20029;-76
2022/10/05 07:04:58;;;;;;;11.32;5.28;;;;;;;12.62;50.52;95012.63;4936592;28;20066;-76
2022/10/05 07:07:30;;;;;;;8.38;4.00;;;;;;;12.67;49.39;95011.75;4954814;28;20107;-76
2022/10/05 07:09:58;;;;;;;8.45;3.70;;;;;;;12.47;49.79;95012.88;4968661;28;20192;-76
2022/10/05 07:12:29;;;;;;;12.48;3.65;;;;;;;12.48;50.21;95017.94;4969277;28;20425;-77
2022/10/05 07:15:26;;;;;;;5.88;3.60;;;;;;;12.32;50.84;95005.19;4966831;28;20317;-76
2022/10/05 07:17:58;;;;;;;4.40;3.42;;;;;;;12.40;51.06;95009.84;4969096;28;20154;-76
2022/10/05 07:20:53;;;;;;;4.45;2.85;;;;;;;12.30;50.22;94999.34;4970411;28;20034;-77
2022/10/05 07:23:24;;;;;;;3.15;2.60;;;;;;;12.19;50.14;94995.28;4924423;28;20063;-76
2022/10/05 07:25:53;;;;;;;5.95;2.90;;;;;;;12.42;50.09;94996.97;4972101;28;20030;-78
2022/10/05 07:28:48;;;;;;;4.00;2.67;;;;;;;12.42;49.95;95018.31;4970990;28;20055;-76
2022/10/05 07:31:21;;;;;;;2.90;2.60;;;;;;;12.34;49.93;95011.00;4967781;28;20130;-77
2022/10/05 07:34:07;;;;;;;4.95;2.78;;;;;;;12.39;50.11;95002.91;4972019;28;20141;-76
2022/10/05 07:39:30;;;;;;;4.40;3.08;;;;;;;12.55;49.47;94996.22;4974084;28;20150;-76
2022/10/05 07:42:29;;;;;;;3.22;2.78;;;;;;;12.71;49.32;95000.19;4975339;28;20484;-77
2022/10/05 07:45:12;;;;;;;5.22;2.88;;;;;;;12.68;48.86;94992.78;4971090;28;20546;-76
2022/10/05 07:47:42;;;;;;;3.53;3.10;;;;;;;12.82;48.14;95003.44;4972943;28;20033;-76
2022/10/05 07:50:18;;;;;;;6.00;3.28;;;;;;;12.75;48.74;94987.84;4957894;28;20539;-76
2022/10/05 07:53:01;;;;;;;5.55;2.75;;;;;;;12.94;48.12;95011.75;4972352;28;20069;-77
2022/10/05 07:55:43;;;;;;;2.53;2.25;;;;;;;12.99;48.11;95010.84;4972805;28;20027;-76
2022/10/05 07:58:30;;;;;;;3.15;2.58;;;;;;;13.14;48.41;95005.19;4955344;28;20504;-77
2022/10/05 08:01:04;;;;;;;2.97;2.38;;;;;;;12.83;47.57;94984.47;4971172;28;20030;-76
2022/10/05 08:03:40;;;;;;;3.50;2.83;;;;;;;13.11;47.92;95003.09;4971066;28;20096;-76
2022/10/05 08:06:12;;;;;;;2.63;2.28;;;;;;;13.08;47.96;95003.72;4973792;28;20034;-76
2022/10/05 08:08:53;;;;;;;5.75;2.80;;;;;;;13.22;47.73;95023.97;4973232;28;20025;-77
2022/10/05 08:11:51;;;;;;;3.28;2.78;;;;;;;13.31;47.45;95030.19;4973888;28;20057;-76
2022/10/05 08:14:27;;;;;;;3.15;2.85;;;;;;;13.40;47.51;95032.91;4954335;28;20093;-77
2022/10/05 08:16:58;;;;;;;5.25;2.90;;;;;;;13.25;47.35;95001.22;4972678;28;20077;-77
2022/10/05 08:19:49;;;;;;;3.97;3.30;;;;;;;12.96;47.45;94990.09;4972896;28;20101;-77
2022/10/05 08:22:28;;;;;;;4.72;3.10;;;;;;;13.36;47.39;95028.47;4972974;28;20094;-76
2022/10/05 08:25:08;;;;;;;6.38;3.10;;;;;;;13.21;47.11;95029.59;4971856;28;20112;-76
2022/10/05 08:28:04;;;;;;;3.38;3.05;;;;;;;13.20;47.44;95034.16;4955686;28;20145;-77
2022/10/05 08:30:34;;;;;;;4.68;3.20;;;;;;;13.17;47.96;95041.97;4970159;28;20589;-78
2022/10/05 08:33:15;;;;;;;2.95;2.38;;;;;;;13.14;47.60;95011.31;4972290;28;20030;-76
2022/10/05 08:35:44;;;;;;;6.60;3.60;;;;;;;13.23;46.92;95022.09;4972770;28;20559;-77
2022/10/05 08:38:23;;;;;;;5.80;3.25;;;;;;;13.20;47.31;95038.72;4970462;28;20602;-76
2022/10/05 08:41:21;;;;;;;3.97;3.50;;;;;;;13.01;47.90;94992.63;4969021;28;20029;-77
2022/10/05 08:44:24;;;;;;;4.28;3.25;;;;;;;13.15;47.54;95031.59;4972583;28;20030;-77
2022/10/05 08:46:52;;;;;;;5.45;3.17;;;;;;;13.15;47.99;95031.59;4971706;28;20023;-76
2022/10/05 08:49:33;;;;;;;3.88;2.90;;;;;;;13.29;47.24;95026.25;4966584;28;20038;-76
2022/10/05 08:52:01;;;;;;;5.45;3.08;;;;;;;13.28;47.50;95024.66;4966061;28;20030;-76
2022/10/05 08:54:45;;;;;;;3.00;2.50;;;;;;;13.38;46.75;95024.44;4964974;28;20030;-76
2022/10/05 08:57:16;;;;;;;10.07;3.28;;;;;;;13.47;46.50;95025.28;4968014;28;20041;-77
2022/10/05 08:59:47;;;;;;;3.33;2.70;;;;;;;13.58;46.06;95018.63;4971596;28;20036;-76
2022/10/05 09:02:34;;;;;;;3.03;2.60;;;;;;;13.74;45.76;95022.53;4967154;28;20496;-77
2022/10/05 09:05:32;;;;;;;5.10;2.65;;;;;;;13.79;45.09;95026.22;4973687;28;20038;-77
2022/10/05 09:08:42;;;;;;;3.63;2.85;;;;;;;13.84;44.88;95026.09;4934786;28;20481;-76
2022/10/05 09:11:31;;;;;;;3.83;2.33;;;;;;;13.98;43.98;95032.97;4967786;28;20034;-76
2022/10/05 09:13:56;;;;;;;3.28;2.75;;;;;;;14.04;44.15;95031.72;4956055;28;20121;-76
2022/10/05 09:16:25;;;;;;;4.93;2.78;;;;;;;14.10;42.92;95032.41;4970181;28;20045;-75
2022/10/05 09:19:23;;;;;;;3.78;2.78;;;;;;;14.04;44.86;95030.94;4968039;28;20034;-76
2022/10/05 09:22:11;;;;;;;5.28;3.10;;;;;;;14.16;45.58;95034.66;4971803;28;20022;-76
2022/10/05 09:24:56;;;;;;;4.78;3.28;;;;;;;14.22;44.93;95032.63;4970408;28;20093;-76
2022/10/05 09:27:37;;;;;;;6.53;2.85;;;;;;;14.26;44.39;95033.59;4970573;28;20097;-76
2022/10/05 09:30:13;;;;;;;3.55;2.75;;;;;;;13.75;44.90;94978.69;4953698;28;20271;-76
2022/10/05 09:33:01;;;;;;;3.88;2.40;;;;;;;14.17;44.46;95022.84;4970269;28;20420;-77
2022/10/05 09:35:45;;;;;;;4.18;2.42;;;;;;;14.20;42.66;95029.47;4966811;28;20034;-76
2022/10/05 09:38:46;;;;;;;7.70;2.78;;;;;;;14.10;43.51;95001.09;4969602;28;20026;-76
2022/10/05 09:41:33;;;;;;;4.10;1.90;;;;;;;14.31;41.95;95035.34;4969460;28;20034;-76
2022/10/05 09:44:02;;;;;;;3.03;2.30;;;;;;;14.36;41.44;95027.19;4966980;28;20433;-76
2022/10/05 09:46:33;;;;;;;2.35;1.67;;;;;;;14.43;40.74;95027.53;4968355;28;20441;-76
2022/10/05 09:49:25;;;;;;;5.00;1.70;;;;;;;14.50;40.99;95036.72;4969779;28;20698;-76
2022/10/05 09:51:59;;;;;;;7.32;1.92;;;;;;;14.34;40.43;95040.09;4968726;28;20035;-76
2022/10/05 09:54:45;;;;;;;4.18;1.88;;;;;;;14.34;39.95;95035.53;4968880;28;20062;-75
2022/10/05 09:57:30;;;;;;;2.60;1.60;;;;;;;14.39;40.18;95038.06;4966871;28;20033;-75
2022/10/05 10:00:13;;;;;;;2.20;1.90;;;;;;;14.14;40.22;95017.31;4967541;28;20042;-76
2022/10/05 10:03:04;;;;;;;1.77;1.55;;;;;;;14.38;39.41;95031.13;4951034;28;20065;-76
2022/10/05 10:05:32;;;;;;;1.90;1.65;;;;;;;14.42;39.65;95029.41;4966274;28;20603;-75
2022/10/05 10:08:26;;;;;;;2.15;1.58;;;;;;;14.18;39.85;95003.00;4968243;28;20080;-77
2022/10/05 10:11:17;;;;;;;4.15;1.40;;;;;;;14.31;39.51;95020.09;4966996;28;20026;-75
2022/10/05 10:13:44;;;;;;;1.40;1.30;;;;;;;14.44;39.40;95035.25;4965283;28;20102;-76
2022/10/05 10:16:36;;;;;;;1.88;1.38;;;;;;;14.55;38.88;95036.63;4965981;28;20633;-75
2022/10/05 10:19:32;;;;;;;2.00;1.40;;;;;;;14.53;39.24;95030.78;4969073;28;20358;-77
2022/10/05 10:22:16;;;;;;;3.90;1.40;;;;;;;14.71;39.34;95033.53;4967829;28;20033;-75
2022/10/05 10:25:04;;;;;;;2.50;1.50;;;;;;;14.17;38.66;94988.06;4965235;28;20775;-76
2022/10/05 10:27:41;;;;;;;5.18;2.47;;;;;;;14.35;39.37;95030.97;4965258;28;20539;-76
2022/10/05 10:30:13;;;;;;;1.50;1.20;;;;;;;14.55;39.63;95036.63;4964855;28;20046;-76
2022/10/05 10:33:04;;;;;;;2.90;1.70;;;;;;;14.65;40.13;95026.72;4965930;28;20066;-76
2022/10/05 10:35:31;;;;;;;2.97;1.55;;;;;;;14.75;40.06;95026.47;4966878;28;20209;-75
2022/10/05 10:38:25;;;;;;;1.83;1.48;;;;;;;14.91;38.20;95020.34;4969657;28;20114;-76
2022/10/05 10:40:53;;;;;;;2.72;1.50;;;;;;;15.08;38.20;95016.16;4966563;28;20045;-76
2022/10/05 10:43:31;;;;;;;2.65;1.58;;;;;;;15.16;38.21;95016.16;4967822;28;20043;-76
2022/10/05 10:46:15;;;;;;;3.50;1.50;;;;;;;15.25;38.10;95008.94;4965593;28;20101;-77
2022/10/05 10:49:09;;;;;;;1.83;1.60;;;;;;;15.34;37.84;95014.31;4966656;28;20401;-76
2022/10/05 10:52:02;;;;;;;33.00;3.97;;;;;;;15.44;37.41;95009.47;4968653;28;20022;-76
2022/10/05 10:54:40;;;;;;;2.63;1.50;;;;;;;15.32;38.56;94995.84;4960462;28;20535;-76
2022/10/05 10:57:10;;;;;;;1.92;1.10;;;;;;;15.40;37.65;95003.09;4967444;28;20480;-75
2022/10/05 11:00:06;;;;;;;1.42;1.33;;;;;;;15.52;37.77;94999.84;4966746;28;20031;-76
2022/10/05 11:03:07;;;;;;;1.20;1.10;;;;;;;15.19;37.46;94980.72;4973488;28;20027;-75
2022/10/05 11:06:11;;;;;;;2.30;1.27;;;;;;;15.19;37.96;94948.56;4972544;28;21240;-78
2022/10/05 11:09:12;;;;;;;2.30;1.58;;;;;;;15.31;37.83;94982.75;4929698;29;20031;-75
2022/10/05 11:12:05;;;;;;;1.63;1.30;;;;;;;15.17;38.70;94988.25;4952311;28;20145;-76
2022/10/05 11:14:50;;;;;;;3.15;1.27;;;;;;;15.04;38.08;94955.16;4970165;28;20034;-76
2022/10/05 11:17:40;;;;;;;2.55;1.65;;;;;;;15.05;39.70;94974.72;4965508;28;20034;-75
2022/10/05 11:20:15;;;;;;;1.65;1.42;;;;;;;15.05;39.40;94974.72;4971203;28;20038;-78
2022/10/05 11:22:53;;;;;;;3.28;1.15;;;;;;;14.92;40.97;94971.03;4970814;28;20567;-77
2022/10/05 11:25:40;;;;;;;2.78;1.58;;;;;;;14.85;39.34;94969.94;4971570;28;20034;-75
2022/10/05 11:28:14;;;;;;;2.80;1.50;;;;;;;14.79;39.78;94971.16;4971275;28;20048;-77
2022/10/05 11:30:58;;;;;;;1.75;1.35;;;;;;;14.85;38.17;94968.03;4971692;28;20623;-75
2022/10/05 11:33:42;;;;;;;8.70;2.80;;;;;;;15.10;38.45;94971.88;4969941;28;20540;-75
2022/10/05 11:36:45;;;;;;;4.78;2.60;;;;;;;15.32;38.46;94952.97;4969020;28;20030;-76
2022/10/05 11:39:48;;;;;;;2.20;1.00;;;;;;;15.43;36.05;94953.44;4967905;28;20041;-75
2022/10/05 11:42:19;;;;;;;2.72;1.30;;;;;;;15.42;34.88;94958.03;4969667;28;20073;-75
2022/10/05 11:45:39;;;;;;;3.35;1.65;;;;;;;15.42;35.16;94949.19;4968239;28;20709;-76
2022/10/05 11:48:22;;;;;;;1.73;1.35;;;;;;;15.42;35.32;94951.88;4916280;29;20024;-75
2022/10/05 11:51:00;;;;;;;2.72;1.15;;;;;;;15.29;35.21;94952.81;4950297;28;20122;-75
2022/10/05 11:53:33;;;;;;;1.30;0.95;;;;;;;15.16;35.88;94953.72;4972742;28;20035;-75
2022/10/05 11:56:28;;;;;;;4.32;1.30;;;;;;;15.21;37.00;94919.53;4968155;28;20022;-76
2022/10/05 11:59:03;;;;;;;4.73;1.50;;;;;;;15.48;37.15;94944.50;4967516;28;20527;-77
2022/10/05 12:01:42;;;;;;;1.65;1.02;;;;;;;15.69;36.51;94929.34;4972630;28;20022;-75
2022/10/05 12:04:58;;;;;;;1.55;1.08;;;;;;;15.92;36.58;94921.88;4973312;28;20671;-76
2022/10/05 12:07:50;;;;;;;1.92;1.20;;;;;;;15.79;35.11;94926.31;4947544;28;20166;-77
2022/10/05 12:10:34;;;;;;;2.92;1.23;;;;;;;15.84;34.30;94926.91;4961696;28;20113;-76
2022/10/05 12:13:18;;;;;;;1.20;1.10;;;;;;;16.02;34.29;94922.31;4966199;28;20712;-77
2022/10/05 12:16:04;;;;;;;1.52;1.35;;;;;;;16.03;35.69;94923.09;4968470;28;20030;-76
2022/10/05 12:18:30;;;;;;;1.58;1.48;;;;;;;15.94;33.32;94923.09;4967682;28;20038;-76
2022/10/05 12:21:18;;;;;;;2.65;0.88;;;;;;;15.74;33.64;94899.66;4969047;28;20051;-77
2022/10/05 12:23:51;;;;;;;2.15;1.10;;;;;;;16.12;33.48;94927.34;4973355;28;20065;-75
2022/10/05 12:26:28;;;;;;;1.52;1.10;;;;;;;15.85;33.90;94919.66;4971871;28;20039;-76
2022/10/05 12:29:32;;;;;;;2.63;0.90;;;;;;;15.99;34.58;94917.56;4969732;28;20070;-77
2022/10/05 12:32:34;;;;;;;2.05;1.10;;;;;;;16.29;34.04;94938.00;4965902;28;20477;-76
2022/10/05 12:35:17;;;;;;;1.63;1.23;;;;;;;16.43;33.30;94929.75;4942438;28;20125;-76
2022/10/05 12:38:02;;;;;;;1.60;1.50;;;;;;;16.55;34.08;94934.47;4969767;28;20041;-76
2022/10/05 12:40:30;;;;;;;3.05;1.08;;;;;;;16.65;33.17;94931.41;4972287;28;20462;-78
2022/10/05 12:43:04;;;;;;;2.35;1.40;;;;;;;16.73;33.47;94934.03;4966677;28;20097;-79